sensor_id;sensor_type;location;lat;lon;timestamp;P1;durP1;ratioP1;P2;durP2;ratioP2
4021;SDS011;2025;48.260;16.432;2022-11-03T00:01:06;6.20;;;2.13;;
4021;SDS011;2025;48.260;16.432;2022-11-03T00:03:33;6.10;;;3.00;;
4021;SDS011;2025;48.260;16.432;2022-11-03T00:06:01;9.88;;;3.25;;
4021;SDS011;2025;48.260;16.432;2022-11-03T00:08:32;9.27;;;4.15;;
4021;SDS011;2025;48.260;16.432;2022-11-03T00:11:05;10.52;;;2.80;;
4021;SDS011;2025;48.260;16.432;2022-11-03T00:16:03;11.77;;;2.88;;
4021;SDS011;2025;48.260;16.432;2022-11-03T00:18:31;8.43;;;3.13;;
4021;SDS011;2025;48.260;16.432;2022-11-03T00:20:59;7.88;;;2.78;;
4021;SDS011;2025;48.260;16.432;2022-11-03T00:23:28;7.32;;;2.45;;
4021;SDS011;2025;48.260;16.432;2022-11-03T00:26:06;9.85;;;5.15;;
4021;SDS011;2025;48.260;16.432;2022-11-03T00:28:35;8.88;;;2.38;;
4021;SDS011;2025;48.260;16.432;2022-11-03T00:31:06;8.25;;;2.63;;
4021;SDS011;2025;48.260;16.432;2022-11-03T00:33:35;9.50;;;2.38;;
4021;SDS011;2025;48.260;16.432;2022-11-03T00:36:03;8.90;;;3.38;;
4021;SDS011;2025;48.260;16.432;2022-11-03T00:38:31;6.05;;;2.20;;
4021;SDS011;2025;48.260;16.432;2022-11-03T00:40:59;11.95;;;2.78;;
4021;SDS011;2025;48.260;16.432;2022-11-03T00:43:27;8.65;;;2.75;;
4021;SDS011;2025;48.260;16.432;2022-11-03T00:45:55;10.77;;;3.83;;
4021;SDS011;2025;48.260;16.432;2022-11-03T00:48:24;9.02;;;3.30;;
4021;SDS011;2025;48.260;16.432;2022-11-03T00:51:02;8.82;;;3.05;;
4021;SDS011;2025;48.260;16.432;2022-11-03T00:53:31;10.27;;;3.28;;
4021;SDS011;2025;48.260;16.432;2022-11-03T00:55:59;10.93;;;3.55;;
4021;SDS011;2025;48.260;16.432;2022-11-03T00:58:27;8.45;;;3.00;;
4021;SDS011;2025;48.260;16.432;2022-11-03T01:00:58;8.02;;;2.45;;
4021;SDS011;2025;48.260;16.432;2022-11-03T01:03:28;6.93;;;2.85;;
4021;SDS011;2025;48.260;16.432;2022-11-03T01:05:57;7.78;;;2.65;;
4021;SDS011;2025;48.260;16.432;2022-11-03T01:11:10;8.30;;;2.53;;
4021;SDS011;2025;48.260;16.432;2022-11-03T01:13:55;7.30;;;2.67;;
4021;SDS011;2025;48.260;16.432;2022-11-03T01:16:23;9.57;;;3.10;;
4021;SDS011;2025;48.260;16.432;2022-11-03T01:18:51;8.27;;;2.83;;
4021;SDS011;2025;48.260;16.432;2022-11-03T01:21:20;10.85;;;3.13;;
4021;SDS011;2025;48.260;16.432;2022-11-03T01:23:47;6.97;;;2.80;;
4021;SDS011;2025;48.260;16.432;2022-11-03T01:26:14;10.73;;;3.22;;
4021;SDS011;2025;48.260;16.432;2022-11-03T01:28:42;11.00;;;3.13;;
4021;SDS011;2025;48.260;16.432;2022-11-03T01:31:11;8.55;;;2.90;;
4021;SDS011;2025;48.260;16.432;2022-11-03T01:33:39;8.93;;;3.70;;
4021;SDS011;2025;48.260;16.432;2022-11-03T01:36:08;6.60;;;2.65;;
4021;SDS011;2025;48.260;16.432;2022-11-03T01:38:35;10.35;;;3.28;;
4021;SDS011;2025;48.260;16.432;2022-11-03T01:41:03;8.73;;;3.30;;
4021;SDS011;2025;48.260;16.432;2022-11-03T01:43:32;13.30;;;3.42;;
4021;SDS011;2025;48.260;16.432;2022-11-03T01:46:01;9.60;;;3.40;;
4021;SDS011;2025;48.260;16.432;2022-11-03T01:48:34;8.25;;;3.10;;
4021;SDS011;2025;48.260;16.432;2022-11-03T01:51:04;7.90;;;3.38;;
4021;SDS011;2025;48.260;16.432;2022-11-03T01:53:35;8.32;;;3.58;;
4021;SDS011;2025;48.260;16.432;2022-11-03T01:58:34;8.82;;;4.93;;
4021;SDS011;2025;48.260;16.432;2022-11-03T02:01:04;7.53;;;2.90;;
4021;SDS011;2025;48.260;16.432;2022-11-03T02:03:32;10.95;;;2.72;;
4021;SDS011;2025;48.260;16.432;2022-11-03T02:06:02;25.15;;;2.85;;
4021;SDS011;2025;48.260;16.432;2022-11-03T02:08:33;6.38;;;2.92;;
4021;SDS011;2025;48.260;16.432;2022-11-03T02:11:05;9.98;;;4.78;;
4021;SDS011;2025;48.260;16.432;2022-11-03T02:13:46;11.68;;;3.05;;
4021;SDS011;2025;48.260;16.432;2022-11-03T02:16:13;8.65;;;3.13;;
4021;SDS011;2025;48.260;16.432;2022-11-03T02:18:41;8.95;;;3.55;;
4021;SDS011;2025;48.260;16.432;2022-11-03T02:21:12;6.38;;;2.80;;
4021;SDS011;2025;48.260;16.432;2022-11-03T02:23:49;6.97;;;2.85;;
4021;SDS011;2025;48.260;16.432;2022-11-03T02:26:24;8.73;;;3.30;;
4021;SDS011;2025;48.260;16.432;2022-11-03T02:28:52;9.05;;;3.92;;
4021;SDS011;2025;48.260;16.432;2022-11-03T02:31:20;7.65;;;2.78;;
4021;SDS011;2025;48.260;16.432;2022-11-03T02:33:53;8.18;;;2.90;;
4021;SDS011;2025;48.260;16.432;2022-11-03T02:36:27;9.63;;;5.70;;
4021;SDS011;2025;48.260;16.432;2022-11-03T02:38:57;8.35;;;3.28;;
4021;SDS011;2025;48.260;16.432;2022-11-03T02:41:29;10.45;;;5.53;;
4021;SDS011;2025;48.260;16.432;2022-11-03T02:43:59;9.38;;;3.72;;
4021;SDS011;2025;48.260;16.432;2022-11-03T02:46:27;8.18;;;3.42;;
4021;SDS011;2025;48.260;16.432;2022-11-03T02:48:57;7.82;;;3.03;;
4021;SDS011;2025;48.260;16.432;2022-11-03T02:51:24;8.05;;;3.75;;
4021;SDS011;2025;48.260;16.432;2022-11-03T02:53:54;8.68;;;4.00;;
4021;SDS011;2025;48.260;16.432;2022-11-03T02:56:26;7.25;;;3.20;;
4021;SDS011;2025;48.260;16.432;2022-11-03T02:59:00;9.50;;;3.20;;
4021;SDS011;2025;48.260;16.432;2022-11-03T03:01:30;7.45;;;2.85;;
4021;SDS011;2025;48.260;16.432;2022-11-03T03:04:02;9.75;;;3.78;;
4021;SDS011;2025;48.260;16.432;2022-11-03T03:06:34;10.43;;;4.47;;
4021;SDS011;2025;48.260;16.432;2022-11-03T03:09:06;9.52;;;3.80;;
4021;SDS011;2025;48.260;16.432;2022-11-03T03:11:37;11.82;;;4.38;;
4021;SDS011;2025;48.260;16.432;2022-11-03T03:14:09;10.63;;;3.88;;
4021;SDS011;2025;48.260;16.432;2022-11-03T03:16:42;9.90;;;4.22;;
4021;SDS011;2025;48.260;16.432;2022-11-03T03:19:19;9.15;;;4.38;;
4021;SDS011;2025;48.260;16.432;2022-11-03T03:21:52;11.70;;;4.03;;
4021;SDS011;2025;48.260;16.432;2022-11-03T03:24:24;8.40;;;3.85;;
4021;SDS011;2025;48.260;16.432;2022-11-03T03:27:01;10.07;;;3.83;;
4021;SDS011;2025;48.260;16.432;2022-11-03T03:29:33;11.52;;;4.18;;
4021;SDS011;2025;48.260;16.432;2022-11-03T03:32:06;12.98;;;4.68;;
4021;SDS011;2025;48.260;16.432;2022-11-03T03:34:35;12.02;;;4.28;;
4021;SDS011;2025;48.260;16.432;2022-11-03T03:37:05;12.30;;;4.43;;
4021;SDS011;2025;48.260;16.432;2022-11-03T03:39:35;8.80;;;3.80;;
4021;SDS011;2025;48.260;16.432;2022-11-03T03:42:07;9.25;;;4.55;;
4021;SDS011;2025;48.260;16.432;2022-11-03T03:44:38;9.88;;;4.25;;
4021;SDS011;2025;48.260;16.432;2022-11-03T03:47:09;11.95;;;4.30;;
4021;SDS011;2025;48.260;16.432;2022-11-03T03:49:40;13.02;;;4.35;;
4021;SDS011;2025;48.260;16.432;2022-11-03T03:52:07;11.82;;;4.68;;
4021;SDS011;2025;48.260;16.432;2022-11-03T03:54:35;10.85;;;4.38;;
4021;SDS011;2025;48.260;16.432;2022-11-03T03:57:03;10.32;;;4.18;;
4021;SDS011;2025;48.260;16.432;2022-11-03T03:59:32;9.50;;;3.85;;
4021;SDS011;2025;48.260;16.432;2022-11-03T04:02:00;10.73;;;3.95;;
4021;SDS011;2025;48.260;16.432;2022-11-03T04:04:27;10.15;;;4.97;;
4021;SDS011;2025;48.260;16.432;2022-11-03T04:06:54;12.00;;;4.43;;
4021;SDS011;2025;48.260;16.432;2022-11-03T04:09:35;11.20;;;4.10;;
4021;SDS011;2025;48.260;16.432;2022-11-03T04:12:02;9.52;;;3.58;;
4021;SDS011;2025;48.260;16.432;2022-11-03T04:14:48;8.68;;;3.25;;
4021;SDS011;2025;48.260;16.432;2022-11-03T04:17:32;10.40;;;3.83;;
4021;SDS011;2025;48.260;16.432;2022-11-03T04:20:16;11.32;;;4.40;;
4021;SDS011;2025;48.260;16.432;2022-11-03T04:25:27;8.40;;;3.88;;
4021;SDS011;2025;48.260;16.432;2022-11-03T04:27:55;9.98;;;3.78;;
4021;SDS011;2025;48.260;16.432;2022-11-03T04:30:23;9.82;;;3.28;;
4021;SDS011;2025;48.260;16.432;2022-11-03T04:32:50;9.68;;;4.28;;
4021;SDS011;2025;48.260;16.432;2022-11-03T04:35:19;9.65;;;3.85;;
4021;SDS011;2025;48.260;16.432;2022-11-03T04:37:50;9.27;;;4.35;;
4021;SDS011;2025;48.260;16.432;2022-11-03T04:40:19;8.50;;;3.83;;
4021;SDS011;2025;48.260;16.432;2022-11-03T04:42:47;8.35;;;4.03;;
4021;SDS011;2025;48.260;16.432;2022-11-03T04:45:18;9.32;;;4.18;;
4021;SDS011;2025;48.260;16.432;2022-11-03T04:47:49;12.43;;;4.28;;
4021;SDS011;2025;48.260;16.432;2022-11-03T04:50:19;10.65;;;4.43;;
4021;SDS011;2025;48.260;16.432;2022-11-03T04:52:47;8.23;;;3.97;;
4021;SDS011;2025;48.260;16.432;2022-11-03T04:55:17;10.35;;;4.30;;
4021;SDS011;2025;48.260;16.432;2022-11-03T04:57:46;12.43;;;4.43;;
4021;SDS011;2025;48.260;16.432;2022-11-03T05:00:17;12.48;;;4.63;;
4021;SDS011;2025;48.260;16.432;2022-11-03T05:02:45;9.95;;;4.05;;
4021;SDS011;2025;48.260;16.432;2022-11-03T05:05:16;10.75;;;4.57;;
4021;SDS011;2025;48.260;16.432;2022-11-03T05:07:45;8.55;;;4.15;;
4021;SDS011;2025;48.260;16.432;2022-11-03T05:10:14;12.77;;;4.47;;
4021;SDS011;2025;48.260;16.432;2022-11-03T05:12:42;11.38;;;4.72;;
4021;SDS011;2025;48.260;16.432;2022-11-03T05:15:22;11.77;;;4.72;;
4021;SDS011;2025;48.260;16.432;2022-11-03T05:17:54;12.85;;;4.35;;
4021;SDS011;2025;48.260;16.432;2022-11-03T05:20:28;11.50;;;5.05;;
4021;SDS011;2025;48.260;16.432;2022-11-03T05:22:57;10.73;;;4.38;;
4021;SDS011;2025;48.260;16.432;2022-11-03T05:25:36;12.25;;;4.95;;
4021;SDS011;2025;48.260;16.432;2022-11-03T05:28:12;10.00;;;4.22;;
4021;SDS011;2025;48.260;16.432;2022-11-03T05:30:44;11.85;;;4.95;;
4021;SDS011;2025;48.260;16.432;2022-11-03T05:33:17;13.50;;;5.78;;
4021;SDS011;2025;48.260;16.432;2022-11-03T05:35:48;11.40;;;5.43;;
4021;SDS011;2025;48.260;16.432;2022-11-03T05:38:15;12.65;;;5.22;;
4021;SDS011;2025;48.260;16.432;2022-11-03T05:40:47;9.63;;;4.90;;
4021;SDS011;2025;48.260;16.432;2022-11-03T05:43:15;11.52;;;4.75;;
4021;SDS011;2025;48.260;16.432;2022-11-03T05:45:45;12.25;;;5.30;;
4021;SDS011;2025;48.260;16.432;2022-11-03T05:48:15;12.10;;;5.00;;
4021;SDS011;2025;48.260;16.432;2022-11-03T05:50:49;14.35;;;5.82;;
4021;SDS011;2025;48.260;16.432;2022-11-03T05:53:24;12.13;;;5.00;;
4021;SDS011;2025;48.260;16.432;2022-11-03T05:55:54;12.98;;;5.00;;
4021;SDS011;2025;48.260;16.432;2022-11-03T05:58:25;10.15;;;4.90;;
4021;SDS011;2025;48.260;16.432;2022-11-03T06:00:54;12.52;;;5.70;;
4021;SDS011;2025;48.260;16.432;2022-11-03T06:03:23;11.43;;;5.07;;
4021;SDS011;2025;48.260;16.432;2022-11-03T06:05:54;15.63;;;6.10;;
4021;SDS011;2025;48.260;16.432;2022-11-03T06:08:23;15.23;;;6.65;;
4021;SDS011;2025;48.260;16.432;2022-11-03T06:10:52;18.60;;;7.05;;
4021;SDS011;2025;48.260;16.432;2022-11-03T06:13:21;15.25;;;6.82;;
4021;SDS011;2025;48.260;16.432;2022-11-03T06:15:53;14.18;;;5.90;;
4021;SDS011;2025;48.260;16.432;2022-11-03T06:18:24;18.58;;;9.10;;
4021;SDS011;2025;48.260;16.432;2022-11-03T06:23:27;14.88;;;5.93;;
4021;SDS011;2025;48.260;16.432;2022-11-03T06:25:54;11.95;;;5.53;;
4021;SDS011;2025;48.260;16.432;2022-11-03T06:28:24;13.40;;;5.45;;
4021;SDS011;2025;48.260;16.432;2022-11-03T06:30:55;14.55;;;5.78;;
4021;SDS011;2025;48.260;16.432;2022-11-03T06:33:23;10.23;;;4.80;;
4021;SDS011;2025;48.260;16.432;2022-11-03T06:35:53;15.52;;;4.70;;
4021;SDS011;2025;48.260;16.432;2022-11-03T06:38:27;10.00;;;4.47;;
4021;SDS011;2025;48.260;16.432;2022-11-03T06:40:55;12.73;;;5.03;;
4021;SDS011;2025;48.260;16.432;2022-11-03T06:43:24;10.77;;;5.10;;
4021;SDS011;2025;48.260;16.432;2022-11-03T06:45:53;12.93;;;5.03;;
4021;SDS011;2025;48.260;16.432;2022-11-03T06:48:24;11.70;;;4.68;;
4021;SDS011;2025;48.260;16.432;2022-11-03T06:50:53;10.65;;;4.40;;
4021;SDS011;2025;48.260;16.432;2022-11-03T06:53:22;10.13;;;4.20;;
4021;SDS011;2025;48.260;16.432;2022-11-03T06:55:53;15.02;;;6.60;;
4021;SDS011;2025;48.260;16.432;2022-11-03T06:58:24;12.93;;;5.90;;
4021;SDS011;2025;48.260;16.432;2022-11-03T07:00:54;13.23;;;4.82;;
4021;SDS011;2025;48.260;16.432;2022-11-03T07:03:25;16.17;;;5.82;;
4021;SDS011;2025;48.260;16.432;2022-11-03T07:05:55;12.20;;;5.00;;
4021;SDS011;2025;48.260;16.432;2022-11-03T07:08:24;15.30;;;5.65;;
4021;SDS011;2025;48.260;16.432;2022-11-03T07:10:58;12.48;;;4.93;;
4021;SDS011;2025;48.260;16.432;2022-11-03T07:13:29;14.57;;;5.32;;
4021;SDS011;2025;48.260;16.432;2022-11-03T07:15:58;10.15;;;4.32;;
4021;SDS011;2025;48.260;16.432;2022-11-03T07:18:26;12.88;;;4.82;;
4021;SDS011;2025;48.260;16.432;2022-11-03T07:20:57;9.95;;;4.28;;
4021;SDS011;2025;48.260;16.432;2022-11-03T07:23:32;9.93;;;4.25;;
4021;SDS011;2025;48.260;16.432;2022-11-03T07:26:00;10.82;;;5.20;;
4021;SDS011;2025;48.260;16.432;2022-11-03T07:28:29;9.50;;;4.40;;
4021;SDS011;2025;48.260;16.432;2022-11-03T07:30:59;11.45;;;5.03;;
4021;SDS011;2025;48.260;16.432;2022-11-03T07:33:31;14.43;;;5.10;;
4021;SDS011;2025;48.260;16.432;2022-11-03T07:35:58;11.80;;;5.05;;
4021;SDS011;2025;48.260;16.432;2022-11-03T07:38:26;12.13;;;6.28;;
4021;SDS011;2025;48.260;16.432;2022-11-03T07:40:55;10.48;;;4.88;;
4021;SDS011;2025;48.260;16.432;2022-11-03T07:43:26;11.02;;;4.55;;
4021;SDS011;2025;48.260;16.432;2022-11-03T07:45:56;9.75;;;4.57;;
4021;SDS011;2025;48.260;16.432;2022-11-03T07:48:26;10.68;;;4.82;;
4021;SDS011;2025;48.260;16.432;2022-11-03T07:50:59;14.27;;;4.88;;
4021;SDS011;2025;48.260;16.432;2022-11-03T07:53:34;11.55;;;4.30;;
4021;SDS011;2025;48.260;16.432;2022-11-03T07:56:12;10.50;;;5.20;;
4021;SDS011;2025;48.260;16.432;2022-11-03T07:58:43;11.98;;;6.55;;
4021;SDS011;2025;48.260;16.432;2022-11-03T08:01:20;11.88;;;4.75;;
4021;SDS011;2025;48.260;16.432;2022-11-03T08:03:49;12.30;;;4.15;;
4021;SDS011;2025;48.260;16.432;2022-11-03T08:06:18;13.88;;;4.78;;
4021;SDS011;2025;48.260;16.432;2022-11-03T08:08:45;10.95;;;4.63;;
4021;SDS011;2025;48.260;16.432;2022-11-03T08:11:12;13.70;;;4.85;;
4021;SDS011;2025;48.260;16.432;2022-11-03T08:13:39;11.40;;;4.68;;
4021;SDS011;2025;48.260;16.432;2022-11-03T08:16:08;12.23;;;4.45;;
4021;SDS011;2025;48.260;16.432;2022-11-03T08:18:35;12.20;;;4.93;;
4021;SDS011;2025;48.260;16.432;2022-11-03T08:21:02;10.98;;;5.32;;
4021;SDS011;2025;48.260;16.432;2022-11-03T08:23:30;12.13;;;5.85;;
4021;SDS011;2025;48.260;16.432;2022-11-03T08:25:57;12.15;;;4.05;;
4021;SDS011;2025;48.260;16.432;2022-11-03T08:28:24;10.65;;;4.00;;
4021;SDS011;2025;48.260;16.432;2022-11-03T08:30:51;10.85;;;5.75;;
4021;SDS011;2025;48.260;16.432;2022-11-03T08:33:20;10.70;;;4.40;;
4021;SDS011;2025;48.260;16.432;2022-11-03T08:35:47;10.80;;;4.72;;
4021;SDS011;2025;48.260;16.432;2022-11-03T08:38:14;9.20;;;3.90;;
4021;SDS011;2025;48.260;16.432;2022-11-03T08:40:41;13.88;;;4.22;;
4021;SDS011;2025;48.260;16.432;2022-11-03T08:43:08;12.48;;;3.85;;
4021;SDS011;2025;48.260;16.432;2022-11-03T08:45:35;13.98;;;3.28;;
4021;SDS011;2025;48.260;16.432;2022-11-03T08:48:02;13.40;;;4.10;;
4021;SDS011;2025;48.260;16.432;2022-11-03T08:50:30;12.13;;;4.47;;
4021;SDS011;2025;48.260;16.432;2022-11-03T08:52:58;9.80;;;3.47;;
4021;SDS011;2025;48.260;16.432;2022-11-03T08:55:25;10.48;;;3.65;;
4021;SDS011;2025;48.260;16.432;2022-11-03T08:57:52;12.38;;;4.25;;
4021;SDS011;2025;48.260;16.432;2022-11-03T09:00:20;11.85;;;3.92;;
4021;SDS011;2025;48.260;16.432;2022-11-03T09:02:47;14.20;;;3.85;;
4021;SDS011;2025;48.260;16.432;2022-11-03T09:05:14;10.60;;;4.38;;
4021;SDS011;2025;48.260;16.432;2022-11-03T09:07:43;11.25;;;4.00;;
4021;SDS011;2025;48.260;16.432;2022-11-03T09:10:10;12.05;;;3.65;;
4021;SDS011;2025;48.260;16.432;2022-11-03T09:12:38;10.55;;;3.78;;
4021;SDS011;2025;48.260;16.432;2022-11-03T09:15:05;10.98;;;3.25;;
4021;SDS011;2025;48.260;16.432;2022-11-03T09:17:34;9.48;;;3.22;;
4021;SDS011;2025;48.260;16.432;2022-11-03T09:20:01;9.85;;;2.85;;
4021;SDS011;2025;48.260;16.432;2022-11-03T09:22:28;8.93;;;2.22;;
4021;SDS011;2025;48.260;16.432;2022-11-03T09:24:56;6.75;;;1.90;;
4021;SDS011;2025;48.260;16.432;2022-11-03T09:27:24;8.20;;;3.42;;
4021;SDS011;2025;48.260;16.432;2022-11-03T09:29:51;9.38;;;1.92;;
4021;SDS011;2025;48.260;16.432;2022-11-03T09:32:18;7.60;;;1.83;;
4021;SDS011;2025;48.260;16.432;2022-11-03T09:34:45;5.32;;;1.58;;
4021;SDS011;2025;48.260;16.432;2022-11-03T09:37:12;7.65;;;2.05;;
4021;SDS011;2025;48.260;16.432;2022-11-03T09:39:40;8.38;;;1.88;;
4021;SDS011;2025;48.260;16.432;2022-11-03T09:42:08;5.07;;;1.55;;
4021;SDS011;2025;48.260;16.432;2022-11-03T09:44:36;11.05;;;1.55;;
4021;SDS011;2025;48.260;16.432;2022-11-03T09:47:04;5.65;;;0.63;;
4021;SDS011;2025;48.260;16.432;2022-11-03T09:49:32;7.85;;;1.13;;
4021;SDS011;2025;48.260;16.432;2022-11-03T09:52:01;8.45;;;1.13;;
4021;SDS011;2025;48.260;16.432;2022-11-03T09:54:28;5.60;;;1.08;;
4021;SDS011;2025;48.260;16.432;2022-11-03T09:56:57;7.85;;;1.08;;
4021;SDS011;2025;48.260;16.432;2022-11-03T09:59:32;5.00;;;1.05;;
4021;SDS011;2025;48.260;16.432;2022-11-03T10:01:59;7.30;;;1.15;;
4021;SDS011;2025;48.260;16.432;2022-11-03T10:04:27;5.20;;;1.20;;
4021;SDS011;2025;48.260;16.432;2022-11-03T10:06:55;5.55;;;1.17;;
4021;SDS011;2025;48.260;16.432;2022-11-03T10:09:23;5.43;;;1.73;;
4021;SDS011;2025;48.260;16.432;2022-11-03T10:11:53;5.15;;;1.05;;
4021;SDS011;2025;48.260;16.432;2022-11-03T10:14:20;7.50;;;0.95;;
4021;SDS011;2025;48.260;16.432;2022-11-03T10:16:51;7.25;;;0.98;;
4021;SDS011;2025;48.260;16.432;2022-11-03T10:19:24;7.18;;;1.40;;
4021;SDS011;2025;48.260;16.432;2022-11-03T10:21:51;8.25;;;1.10;;
4021;SDS011;2025;48.260;16.432;2022-11-03T10:24:18;8.82;;;0.85;;
4021;SDS011;2025;48.260;16.432;2022-11-03T10:26:46;7.88;;;0.95;;
4021;SDS011;2025;48.260;16.432;2022-11-03T10:29:19;6.47;;;0.90;;
4021;SDS011;2025;48.260;16.432;2022-11-03T10:34:31;6.55;;;1.10;;
4021;SDS011;2025;48.260;16.432;2022-11-03T10:39:37;5.75;;;0.75;;
4021;SDS011;2025;48.260;16.432;2022-11-03T10:42:04;7.03;;;0.63;;
4021;SDS011;2025;48.260;16.432;2022-11-03T10:44:31;7.70;;;2.80;;
4021;SDS011;2025;48.260;16.432;2022-11-03T10:46:59;7.55;;;1.42;;
4021;SDS011;2025;48.260;16.432;2022-11-03T10:49:29;5.90;;;0.77;;
4021;SDS011;2025;48.260;16.432;2022-11-03T10:52:00;6.25;;;0.88;;
4021;SDS011;2025;48.260;16.432;2022-11-03T10:54:33;5.35;;;0.95;;
4021;SDS011;2025;48.260;16.432;2022-11-03T10:57:02;4.00;;;0.68;;
4021;SDS011;2025;48.260;16.432;2022-11-03T10:59:30;6.38;;;0.95;;
4021;SDS011;2025;48.260;16.432;2022-11-03T11:02:01;7.65;;;0.90;;
4021;SDS011;2025;48.260;16.432;2022-11-03T11:04:31;4.45;;;0.50;;
4021;SDS011;2025;48.260;16.432;2022-11-03T11:06:59;6.50;;;0.65;;
4021;SDS011;2025;48.260;16.432;2022-11-03T11:09:26;7.93;;;1.33;;
4021;SDS011;2025;48.260;16.432;2022-11-03T11:11:57;4.30;;;0.70;;
4021;SDS011;2025;48.260;16.432;2022-11-03T11:14:37;4.22;;;0.60;;
4021;SDS011;2025;48.260;16.432;2022-11-03T11:26:12;5.07;;;0.70;;
4021;SDS011;2025;48.260;16.432;2022-11-03T11:28:41;5.90;;;1.33;;
4021;SDS011;2025;48.260;16.432;2022-11-03T11:31:26;3.72;;;0.70;;
4021;SDS011;2025;48.260;16.432;2022-11-03T11:39:59;6.35;;;1.15;;
4021;SDS011;2025;48.260;16.432;2022-11-03T11:42:26;5.72;;;1.17;;
4021;SDS011;2025;48.260;16.432;2022-11-03T11:45:02;6.75;;;1.20;;
4021;SDS011;2025;48.260;16.432;2022-11-03T11:47:44;8.85;;;1.33;;
4021;SDS011;2025;48.260;16.432;2022-11-03T11:50:23;4.43;;;0.90;;
4021;SDS011;2025;48.260;16.432;2022-11-03T11:52:59;4.57;;;0.70;;
4021;SDS011;2025;48.260;16.432;2022-11-03T11:55:39;5.60;;;1.00;;
4021;SDS011;2025;48.260;16.432;2022-11-03T11:58:14;5.45;;;0.52;;
4021;SDS011;2025;48.260;16.432;2022-11-03T12:00:54;5.03;;;1.10;;
4021;SDS011;2025;48.260;16.432;2022-11-03T12:03:35;5.05;;;0.82;;
4021;SDS011;2025;48.260;16.432;2022-11-03T12:06:06;8.30;;;0.88;;
4021;SDS011;2025;48.260;16.432;2022-11-03T12:08:37;5.45;;;1.08;;
4021;SDS011;2025;48.260;16.432;2022-11-03T12:11:04;6.50;;;1.30;;
4021;SDS011;2025;48.260;16.432;2022-11-03T12:13:33;7.47;;;0.93;;
4021;SDS011;2025;48.260;16.432;2022-11-03T12:16:09;4.22;;;0.50;;
4021;SDS011;2025;48.260;16.432;2022-11-03T12:18:52;4.38;;;0.63;;
4021;SDS011;2025;48.260;16.432;2022-11-03T12:24:32;9.57;;;1.30;;
4021;SDS011;2025;48.260;16.432;2022-11-03T12:27:18;5.57;;;1.00;;
4021;SDS011;2025;48.260;16.432;2022-11-03T12:30:00;5.15;;;0.77;;
4021;SDS011;2025;48.260;16.432;2022-11-03T12:32:29;5.05;;;1.02;;
4021;SDS011;2025;48.260;16.432;2022-11-03T12:34:57;4.93;;;0.88;;
4021;SDS011;2025;48.260;16.432;2022-11-03T12:37:24;4.32;;;0.82;;
4021;SDS011;2025;48.260;16.432;2022-11-03T12:39:52;7.10;;;0.68;;
4021;SDS011;2025;48.260;16.432;2022-11-03T12:42:19;6.82;;;1.23;;
4021;SDS011;2025;48.260;16.432;2022-11-03T12:44:49;7.78;;;0.90;;
4021;SDS011;2025;48.260;16.432;2022-11-03T12:47:16;7.20;;;0.95;;
4021;SDS011;2025;48.260;16.432;2022-11-03T12:49:43;5.28;;;0.80;;
4021;SDS011;2025;48.260;16.432;2022-11-03T12:52:10;5.68;;;1.10;;
4021;SDS011;2025;48.260;16.432;2022-11-03T12:54:37;8.13;;;0.93;;
4021;SDS011;2025;48.260;16.432;2022-11-03T12:57:07;7.53;;;0.98;;
4021;SDS011;2025;48.260;16.432;2022-11-03T12:59:35;5.88;;;0.88;;
4021;SDS011;2025;48.260;16.432;2022-11-03T13:02:02;9.55;;;1.80;;
4021;SDS011;2025;48.260;16.432;2022-11-03T13:04:29;6.22;;;1.05;;
4021;SDS011;2025;48.260;16.432;2022-11-03T13:06:57;5.43;;;1.75;;
4021;SDS011;2025;48.260;16.432;2022-11-03T13:09:25;7.05;;;0.93;;
4021;SDS011;2025;48.260;16.432;2022-11-03T13:11:52;5.53;;;0.80;;
4021;SDS011;2025;48.260;16.432;2022-11-03T13:14:41;6.18;;;1.50;;
4021;SDS011;2025;48.260;16.432;2022-11-03T13:17:15;7.35;;;1.05;;
4021;SDS011;2025;48.260;16.432;2022-11-03T13:19:43;6.75;;;1.00;;
4021;SDS011;2025;48.260;16.432;2022-11-03T13:22:10;5.53;;;0.88;;
4021;SDS011;2025;48.260;16.432;2022-11-03T13:24:37;5.47;;;0.90;;
4021;SDS011;2025;48.260;16.432;2022-11-03T13:27:04;7.57;;;1.45;;
4021;SDS011;2025;48.260;16.432;2022-11-03T13:29:31;6.32;;;1.17;;
4021;SDS011;2025;48.260;16.432;2022-11-03T13:32:00;7.45;;;0.82;;
4021;SDS011;2025;48.260;16.432;2022-11-03T13:34:27;7.10;;;2.03;;
4021;SDS011;2025;48.260;16.432;2022-11-03T13:36:54;5.00;;;1.20;;
4021;SDS011;2025;48.260;16.432;2022-11-03T13:39:21;6.90;;;1.30;;
4021;SDS011;2025;48.260;16.432;2022-11-03T13:41:48;6.32;;;0.98;;
4021;SDS011;2025;48.260;16.432;2022-11-03T13:44:15;5.30;;;0.82;;
4021;SDS011;2025;48.260;16.432;2022-11-03T13:46:42;7.32;;;1.17;;
4021;SDS011;2025;48.260;16.432;2022-11-03T13:49:11;6.85;;;1.10;;
4021;SDS011;2025;48.260;16.432;2022-11-03T13:51:39;6.20;;;1.50;;
4021;SDS011;2025;48.260;16.432;2022-11-03T13:54:06;5.60;;;0.98;;
4021;SDS011;2025;48.260;16.432;2022-11-03T13:56:34;5.10;;;1.20;;
4021;SDS011;2025;48.260;16.432;2022-11-03T13:59:01;3.97;;;1.20;;
4021;SDS011;2025;48.260;16.432;2022-11-03T14:01:28;8.57;;;1.33;;
4021;SDS011;2025;48.260;16.432;2022-11-03T14:03:55;4.55;;;0.80;;
4021;SDS011;2025;48.260;16.432;2022-11-03T14:06:24;5.47;;;0.75;;
4021;SDS011;2025;48.260;16.432;2022-11-03T14:08:51;5.07;;;1.17;;
4021;SDS011;2025;48.260;16.432;2022-11-03T14:11:18;5.45;;;0.88;;
4021;SDS011;2025;48.260;16.432;2022-11-03T14:14:02;7.10;;;0.80;;
4021;SDS011;2025;48.260;16.432;2022-11-03T14:16:29;4.68;;;0.93;;
4021;SDS011;2025;48.260;16.432;2022-11-03T14:18:56;5.47;;;1.15;;
4021;SDS011;2025;48.260;16.432;2022-11-03T14:21:25;6.25;;;1.25;;
4021;SDS011;2025;48.260;16.432;2022-11-03T14:23:52;6.03;;;1.38;;
4021;SDS011;2025;48.260;16.432;2022-11-03T14:26:19;7.18;;;1.38;;
4021;SDS011;2025;48.260;16.432;2022-11-03T14:28:46;6.35;;;0.95;;
4021;SDS011;2025;48.260;16.432;2022-11-03T14:31:13;5.65;;;1.35;;
4021;SDS011;2025;48.260;16.432;2022-11-03T14:33:40;5.85;;;1.45;;
4021;SDS011;2025;48.260;16.432;2022-11-03T14:36:07;10.70;;;1.60;;
4021;SDS011;2025;48.260;16.432;2022-11-03T14:38:35;5.75;;;1.73;;
4021;SDS011;2025;48.260;16.432;2022-11-03T14:41:02;5.07;;;1.35;;
4021;SDS011;2025;48.260;16.432;2022-11-03T14:43:47;5.63;;;1.17;;
4021;SDS011;2025;48.260;16.432;2022-11-03T14:46:14;4.30;;;1.02;;
4021;SDS011;2025;48.260;16.432;2022-11-03T14:48:41;5.03;;;1.55;;
4021;SDS011;2025;48.260;16.432;2022-11-03T14:51:08;6.60;;;2.10;;
4021;SDS011;2025;48.260;16.432;2022-11-03T14:53:36;6.63;;;1.48;;
4021;SDS011;2025;48.260;16.432;2022-11-03T14:56:04;4.82;;;1.13;;
4021;SDS011;2025;48.260;16.432;2022-11-03T14:58:31;7.60;;;1.40;;
4021;SDS011;2025;48.260;16.432;2022-11-03T15:00:58;5.63;;;1.38;;
4021;SDS011;2025;48.260;16.432;2022-11-03T15:03:26;8.73;;;1.80;;
4021;SDS011;2025;48.260;16.432;2022-11-03T15:05:53;6.43;;;1.52;;
4021;SDS011;2025;48.260;16.432;2022-11-03T15:08:20;10.20;;;1.80;;
4021;SDS011;2025;48.260;16.432;2022-11-03T15:10:49;7.72;;;1.60;;
4021;SDS011;2025;48.260;16.432;2022-11-03T15:13:17;6.03;;;1.17;;
4021;SDS011;2025;48.260;16.432;2022-11-03T15:15:46;4.95;;;1.38;;
4021;SDS011;2025;48.260;16.432;2022-11-03T15:18:13;6.15;;;1.58;;
4021;SDS011;2025;48.260;16.432;2022-11-03T15:20:40;5.65;;;1.33;;
4021;SDS011;2025;48.260;16.432;2022-11-03T15:23:07;8.15;;;1.58;;
4021;SDS011;2025;48.260;16.432;2022-11-03T15:25:34;5.25;;;1.50;;
4021;SDS011;2025;48.260;16.432;2022-11-03T15:28:02;7.13;;;2.85;;
4021;SDS011;2025;48.260;16.432;2022-11-03T15:30:29;6.85;;;1.27;;
4021;SDS011;2025;48.260;16.432;2022-11-03T15:32:56;8.15;;;1.80;;
4021;SDS011;2025;48.260;16.432;2022-11-03T15:35:23;5.82;;;1.52;;
4021;SDS011;2025;48.260;16.432;2022-11-03T15:37:51;6.63;;;1.40;;
4021;SDS011;2025;48.260;16.432;2022-11-03T15:40:18;7.68;;;2.78;;
4021;SDS011;2025;48.260;16.432;2022-11-03T15:42:46;6.07;;;1.17;;
4021;SDS011;2025;48.260;16.432;2022-11-03T15:45:14;6.40;;;1.25;;
4021;SDS011;2025;48.260;16.432;2022-11-03T15:47:42;4.50;;;1.20;;